createdAt,value
2018-04-15T00:01:36.970Z,68.20
2018-04-15T00:04:03.151Z,68.20
2018-04-15T00:06:29.242Z,68.30
2018-04-15T00:08:55.347Z,69.20
2018-04-15T00:11:21.486Z,68.80
2018-04-15T00:13:47.606Z,68.90
2018-04-15T00:16:13.804Z,69.00
2018-04-15T00:18:40.659Z,69.20
2018-04-15T00:21:06.807Z,69.20
2018-04-15T00:23:32.919Z,69.10
2018-04-15T00:25:59.048Z,69.00
2018-04-15T00:28:25.176Z,69.00
2018-04-15T00:30:51.327Z,68.90
2018-04-15T00:33:17.431Z,68.70
2018-04-15T00:35:43.578Z,68.30
2018-04-15T00:38:09.699Z,68.30
2018-04-15T00:40:35.864Z,67.90
2018-04-15T00:43:02.737Z,67.50
2018-04-15T00:45:28.904Z,67.50
2018-04-15T00:47:55.039Z,67.30
2018-04-15T00:50:21.161Z,67.10
2018-04-15T00:52:47.291Z,66.70
2018-04-15T00:55:13.408Z,66.80
2018-04-15T00:57:39.542Z,66.60
2018-04-15T01:00:05.730Z,66.70
2018-04-15T01:02:31.855Z,66.70
2018-04-15T01:04:57.970Z,66.40
2018-04-15T01:07:24.123Z,66.40
2018-04-15T01:09:50.227Z,66.30
2018-04-15T01:12:16.429Z,66.20
2018-04-15T01:14:42.542Z,66.30
2018-04-15T01:17:09.410Z,66.50
2018-04-15T01:19:35.552Z,66.50
2018-04-15T01:22:01.782Z,66.50
2018-04-15T01:24:27.923Z,67.40
2018-04-15T01:26:54.042Z,66.60
2018-04-15T01:29:20.207Z,66.50
2018-04-15T01:31:46.498Z,66.10
2018-04-15T01:34:12.618Z,66.30
2018-04-15T01:36:38.735Z,66.30
2018-04-15T01:39:04.922Z,66.20
2018-04-15T01:41:31.056Z,66.40
2018-04-15T01:43:57.203Z,66.00
2018-04-15T01:46:23.329Z,66.00
2018-04-15T01:48:49.446Z,66.10
2018-04-15T01:51:15.563Z,66.20
2018-04-15T01:53:41.790Z,66.40
2018-04-15T01:56:07.903Z,66.50
2018-04-15T01:58:34.055Z,66.60
2018-04-15T02:01:00.188Z,66.90
2018-04-15T02:03:26.330Z,66.80
2018-04-15T02:05:52.456Z,66.80
2018-04-15T02:08:18.585Z,66.70
2018-04-15T02:10:44.699Z,66.90
2018-04-15T02:13:10.870Z,67.20
2018-04-15T02:15:37.735Z,66.90
2018-04-15T02:18:03.891Z,66.90
2018-04-15T02:20:30.060Z,66.80
2018-04-15T02:22:56.154Z,67.10
2018-04-15T02:25:22.319Z,67.40
2018-04-15T02:27:48.450Z,67.20
2018-04-15T02:30:14.584Z,67.50
2018-04-15T02:32:40.697Z,67.60
2018-04-15T02:35:06.840Z,67.60
2018-04-15T02:37:32.930Z,67.20
2018-04-15T02:39:59.803Z,67.30
2018-04-15T02:42:25.927Z,67.30
2018-04-15T02:44:52.161Z,67.10
2018-04-15T02:47:18.264Z,67.30
2018-04-15T02:49:44.394Z,67.20
2018-04-15T02:52:10.503Z,67.40
2018-04-15T02:54:37.371Z,67.50
2018-04-15T02:57:03.540Z,67.50
2018-04-15T02:59:29.670Z,67.50
2018-04-15T03:01:55.858Z,67.20
2018-04-15T03:04:22.744Z,67.30
2018-04-15T03:06:48.887Z,67.20
2018-04-15T03:09:15.770Z,67.20
2018-04-15T03:11:41.891Z,67.20
2018-04-15T03:14:08.016Z,67.20
2018-04-15T03:16:34.170Z,67.10
2018-04-15T03:19:00.271Z,67.00
2018-04-15T03:21:26.427Z,67.30
2018-04-15T03:23:52.527Z,68.40
2018-04-15T03:26:18.651Z,68.10
2018-04-15T03:28:44.873Z,67.90
2018-04-15T03:31:11.009Z,68.30
2018-04-15T03:33:37.099Z,68.10
2018-04-15T03:36:03.230Z,69.10
2018-04-15T03:38:29.351Z,69.50
2018-04-15T03:40:55.480Z,69.70
2018-04-15T03:43:22.391Z,69.30
2018-04-15T03:45:49.255Z,69.40
2018-04-15T03:48:15.483Z,69.30
2018-04-15T03:50:41.582Z,70.00
2018-04-15T03:53:07.703Z,68.80
2018-04-15T03:55:34.538Z,68.70
2018-04-15T03:58:00.672Z,68.70
2018-04-15T04:00:26.816Z,68.40
2018-04-15T04:02:52.931Z,68.00
2018-04-15T04:05:19.787Z,68.20
2018-04-15T04:07:46.039Z,68.20
2018-04-15T04:10:12.212Z,69.10
2018-04-15T04:12:38.331Z,69.30
2018-04-15T04:15:04.430Z,69.40
2018-04-15T04:17:42.730Z,69.70
2018-04-15T04:20:21.093Z,70.10
2018-04-15T04:22:59.375Z,70.10
2018-04-15T04:25:35.641Z,70.60
2018-04-15T04:28:01.799Z,70.20
2018-04-15T04:30:28.637Z,70.90
2018-04-15T04:32:54.758Z,70.90
2018-04-15T04:35:20.870Z,71.10
2018-04-15T04:37:47.004Z,71.00
2018-04-15T04:40:13.118Z,71.80
2018-04-15T04:42:39.239Z,71.10
2018-04-15T04:45:05.432Z,70.90
2018-04-15T04:47:31.559Z,70.50
2018-04-15T04:49:57.707Z,70.90
2018-04-15T04:52:23.794Z,71.10
2018-04-15T04:54:49.926Z,71.00
2018-04-15T04:57:16.029Z,71.10
2018-04-15T04:59:42.235Z,70.80
2018-04-15T05:02:09.119Z,71.30
2018-04-15T05:04:35.254Z,71.30
2018-04-15T05:07:01.383Z,71.60
2018-04-15T05:09:27.480Z,71.40
2018-04-15T05:11:53.658Z,71.20
2018-04-15T05:14:19.899Z,71.40
2018-04-15T05:16:46.762Z,71.50
2018-04-15T05:19:12.891Z,71.40
2018-04-15T05:21:39.036Z,71.10
2018-04-15T05:24:05.143Z,71.20
2018-04-15T05:26:31.284Z,71.10
2018-04-15T05:28:57.403Z,70.90
2018-04-15T05:31:23.625Z,70.60
2018-04-15T05:33:49.798Z,70.60
2018-04-15T05:36:16.006Z,70.20
2018-04-15T05:38:42.116Z,70.80
2018-04-15T05:41:08.229Z,70.50
2018-04-15T05:43:34.353Z,70.00
2018-04-15T05:46:00.455Z,70.30
2018-04-15T05:48:26.575Z,69.90
2018-04-15T05:50:53.414Z,69.90
2018-04-15T05:53:19.567Z,69.90
2018-04-15T05:55:45.670Z,69.80
2018-04-15T05:58:11.792Z,69.80
2018-04-15T06:00:37.930Z,70.60
2018-04-15T06:03:04.053Z,69.80
2018-04-15T06:05:30.163Z,69.40
2018-04-15T06:07:56.416Z,69.70
2018-04-15T06:10:22.576Z,69.60
2018-04-15T06:12:48.744Z,69.60
2018-04-15T06:15:15.600Z,69.80
2018-04-15T06:17:41.841Z,69.80
2018-04-15T06:20:07.952Z,69.00
2018-04-15T06:22:34.056Z,69.60
2018-04-15T06:25:00.179Z,69.30
2018-04-15T06:27:27.044Z,69.00
2018-04-15T06:29:53.179Z,69.00
2018-04-15T06:32:19.303Z,68.90
2018-04-15T06:34:45.440Z,68.80
2018-04-15T06:37:11.550Z,68.70
2018-04-15T06:39:37.683Z,68.60
2018-04-15T06:42:03.843Z,68.70
2018-04-15T06:44:30.391Z,68.70
2018-04-15T06:47:00.505Z,68.20
2018-04-15T06:49:38.946Z,68.60
2018-04-15T06:52:05.469Z,68.50
2018-04-15T06:54:31.692Z,68.10
2018-04-15T06:57:03.315Z,69.30
2018-04-15T06:59:29.501Z,69.30
2018-04-15T07:01:55.646Z,69.40
2018-04-15T07:04:22.553Z,69.40
2018-04-15T07:06:49.439Z,69.00
2018-04-15T07:09:15.647Z,69.00
2018-04-15T07:11:42.051Z,68.10
2018-04-15T07:14:08.310Z,68.70
2018-04-15T07:16:34.519Z,68.90
2018-04-15T07:19:01.566Z,68.80
2018-04-15T07:21:27.935Z,68.20
2018-04-15T07:23:58.417Z,67.60
2018-04-15T07:26:24.869Z,68.50
2018-04-15T07:28:51.160Z,67.30
2018-04-15T07:31:18.099Z,67.40
2018-04-15T07:33:51.942Z,67.40
2018-04-15T07:36:18.244Z,67.70
2018-04-15T07:38:45.086Z,67.40
2018-04-15T07:41:18.103Z,67.50
2018-04-15T07:43:44.285Z,67.50
2018-04-15T07:46:12.194Z,67.30
2018-04-15T07:48:39.086Z,67.30
2018-04-15T07:51:06.103Z,66.10
2018-04-15T07:53:33.286Z,66.00
2018-04-15T07:55:59.510Z,65.60
2018-04-15T07:58:25.724Z,65.80
2018-04-15T08:00:51.995Z,65.90
2018-04-15T08:03:19.979Z,66.00
2018-04-15T08:05:46.559Z,64.80
2018-04-15T08:08:12.731Z,64.50
2018-04-15T08:10:40.074Z,64.40
2018-04-15T08:13:06.340Z,65.00
2018-04-15T08:15:36.972Z,65.80
2018-04-15T08:18:03.168Z,65.80
2018-04-15T08:20:29.330Z,65.70
2018-04-15T08:23:00.928Z,65.20
2018-04-15T08:25:27.739Z,65.30
2018-04-15T08:27:54.746Z,65.30
2018-04-15T08:30:20.885Z,64.70
2018-04-15T08:32:47.093Z,65.80
2018-04-15T08:35:17.314Z,64.50
2018-04-15T08:37:43.510Z,63.90
2018-04-15T08:40:09.673Z,63.80
2018-04-15T08:42:39.975Z,64.00
2018-04-15T08:45:07.230Z,64.60
2018-04-15T08:47:33.426Z,64.00
2018-04-15T08:50:02.249Z,64.70
2018-04-15T08:52:28.673Z,65.10
2018-04-15T08:54:55.339Z,65.40
2018-04-15T08:57:21.618Z,64.30
2018-04-15T08:59:48.579Z,64.20
2018-04-15T09:02:15.530Z,64.90
2018-04-15T09:04:42.527Z,64.20
2018-04-15T09:07:08.735Z,63.80
2018-04-15T09:09:35.604Z,62.70
2018-04-15T09:12:02.704Z,62.60
2018-04-15T09:14:28.875Z,63.20
2018-04-15T09:16:55.093Z,63.30
2018-04-15T09:19:21.294Z,64.30
2018-04-15T09:21:51.755Z,64.20
2018-04-15T09:24:19.260Z,64.50
2018-04-15T09:26:45.467Z,63.60
2018-04-15T09:29:26.635Z,62.50
2018-04-15T09:31:58.149Z,62.40
2018-04-15T09:34:24.335Z,62.30
2018-04-15T09:36:55.022Z,61.30
2018-04-15T09:39:21.155Z,60.00
2018-04-15T09:41:55.921Z,61.00
2018-04-15T09:44:22.905Z,61.00
2018-04-15T09:46:49.136Z,59.80
2018-04-15T09:49:19.588Z,59.90
2018-04-15T09:51:46.985Z,57.70
2018-04-15T09:54:18.625Z,57.30
2018-04-15T09:56:54.159Z,55.10
2018-04-15T09:59:21.050Z,55.60
2018-04-15T10:01:51.612Z,57.70
2018-04-15T10:04:18.251Z,59.70
2018-04-15T10:06:45.413Z,59.40
2018-04-15T10:09:13.622Z,59.60
2018-04-15T10:11:39.765Z,60.70
2018-04-15T10:14:06.752Z,59.40
2018-04-15T10:16:33.747Z,58.80
2018-04-15T10:19:00.013Z,58.70
2018-04-15T10:21:26.357Z,58.90
2018-04-15T10:23:52.683Z,56.80
2018-04-15T10:26:22.826Z,57.40
2018-04-15T10:28:49.251Z,57.60
2018-04-15T10:31:19.864Z,56.90
2018-04-15T10:33:46.833Z,55.10
2018-04-15T10:36:13.018Z,55.00
2018-04-15T10:38:39.484Z,55.40
2018-04-15T10:41:05.679Z,55.30
2018-04-15T10:43:31.817Z,52.90
2018-04-15T10:45:59.700Z,53.40
2018-04-15T10:48:26.445Z,53.40
2018-04-15T10:50:53.179Z,51.30
2018-04-15T10:53:20.170Z,52.90
2018-04-15T10:55:46.428Z,52.40
2018-04-15T10:58:17.651Z,52.60
2018-04-15T11:00:47.792Z,53.40
2018-04-15T11:03:13.934Z,53.10
2018-04-15T11:05:45.776Z,50.60
2018-04-15T11:08:15.890Z,50.50
2018-04-15T11:10:42.054Z,49.80
2018-04-15T11:13:09.134Z,52.10
2018-04-15T11:15:36.628Z,51.40
2018-04-15T11:18:03.550Z,51.80
2018-04-15T11:20:30.769Z,51.60
2018-04-15T11:22:57.761Z,52.50
2018-04-15T11:25:23.987Z,52.50
2018-04-15T11:27:50.212Z,49.20
2018-04-15T11:30:17.059Z,49.50
2018-04-15T11:32:43.306Z,48.40
2018-04-15T11:35:25.058Z,48.80
2018-04-15T11:37:51.211Z,49.40
2018-04-15T11:40:18.107Z,49.20
2018-04-15T11:42:44.310Z,49.10
2018-04-15T11:45:11.343Z,48.10
2018-04-15T11:47:37.515Z,49.50
2018-04-15T11:50:03.752Z,50.40
2018-04-15T11:52:33.019Z,50.80
2018-04-15T11:54:59.952Z,49.70
2018-04-15T11:57:26.122Z,48.10
2018-04-15T11:59:52.415Z,46.50
2018-04-15T12:02:18.640Z,47.80
2018-04-15T12:04:48.952Z,46.70
2018-04-15T12:07:19.978Z,49.20
2018-04-15T12:09:46.154Z,47.80
2018-04-15T12:12:14.582Z,46.30
2018-04-15T12:14:40.759Z,46.50
2018-04-15T12:17:07.538Z,46.20
2018-04-15T12:19:33.726Z,47.00
2018-04-15T12:22:01.519Z,46.90
2018-04-15T12:24:28.479Z,46.30
2018-04-15T12:26:54.645Z,46.30
2018-04-15T12:29:25.303Z,46.60
2018-04-15T12:34:26.923Z,45.40
2018-04-15T12:36:54.037Z,46.50
2018-04-15T12:39:20.312Z,45.60
2018-04-15T12:41:50.967Z,46.60
2018-04-15T12:44:18.534Z,47.20
2018-04-15T12:46:44.934Z,46.40
2018-04-15T12:49:11.118Z,45.30
2018-04-15T12:51:37.368Z,45.60
2018-04-15T12:54:04.097Z,46.00
2018-04-15T12:56:30.313Z,46.50
2018-04-15T12:58:57.372Z,45.10
2018-04-15T13:01:23.575Z,45.00
2018-04-15T13:03:54.823Z,46.50
2018-04-15T13:06:21.126Z,45.90
2018-04-15T13:08:47.276Z,44.60
2018-04-15T13:11:13.546Z,44.60
2018-04-15T13:13:39.732Z,46.00
2018-04-15T13:16:05.948Z,45.70
2018-04-15T13:18:32.212Z,45.70
2018-04-15T13:20:58.423Z,47.40
2018-04-15T13:23:24.656Z,47.00
2018-04-15T13:25:52.043Z,46.60
2018-04-15T13:28:22.695Z,47.00
2018-04-15T13:30:49.824Z,46.10
2018-04-15T13:33:16.042Z,47.00
2018-04-15T13:35:42.270Z,46.90
2018-04-15T13:38:08.503Z,46.40
2018-04-15T13:40:34.677Z,44.70
2018-04-15T13:43:00.942Z,44.70
2018-04-15T13:45:27.114Z,42.90
2018-04-15T13:47:56.324Z,43.10
2018-04-15T13:50:22.557Z,44.40
2018-04-15T13:52:51.564Z,46.50
2018-04-15T13:55:18.576Z,46.30
2018-04-15T13:57:49.065Z,46.30
2018-04-15T14:00:16.718Z,45.70
2018-04-15T14:02:50.320Z,44.90
2018-04-15T14:05:19.434Z,46.80
2018-04-15T14:07:46.458Z,43.70
2018-04-15T14:10:13.838Z,44.00
2018-04-15T14:13:06.873Z,43.80
2018-04-15T14:32:23.904Z,43.70
2018-04-15T14:34:50.202Z,44.40
2018-04-15T14:37:23.531Z,43.40
2018-04-15T14:39:50.214Z,42.50
2018-04-15T14:42:17.134Z,43.30
2018-04-15T14:44:44.783Z,43.30
2018-04-15T14:47:12.388Z,42.60
2018-04-15T14:49:39.109Z,43.40
2018-04-15T14:52:05.938Z,43.70
2018-04-15T14:54:32.239Z,43.00
2018-04-15T14:56:58.384Z,43.80
2018-04-15T14:59:25.132Z,43.20
2018-04-15T15:01:56.999Z,42.80
2018-04-15T15:04:24.876Z,42.60
2018-04-15T15:06:52.933Z,44.20
2018-04-15T15:09:19.194Z,44.20
2018-04-15T15:11:46.263Z,42.80
2018-04-15T15:14:12.749Z,41.80
2018-04-15T15:16:39.306Z,42.20
2018-04-15T15:19:10.288Z,41.90
2018-04-15T15:21:37.043Z,41.30
2018-04-15T15:24:03.954Z,40.20
2018-04-15T15:26:30.208Z,42.90
2018-04-15T15:28:56.509Z,40.90
2018-04-15T15:31:22.738Z,38.90
2018-04-15T15:33:49.633Z,39.10
2018-04-15T15:36:15.864Z,39.10
2018-04-15T15:38:43.134Z,40.50
2018-04-15T15:41:09.669Z,42.00
2018-04-15T15:43:35.971Z,43.10
2018-04-15T15:46:03.012Z,42.30
2018-04-15T15:48:30.065Z,42.60
2018-04-15T15:50:59.294Z,42.50
2018-04-15T15:53:26.594Z,41.70
2018-04-15T15:55:52.827Z,41.20
2018-04-15T15:58:23.744Z,40.40
2018-04-15T16:00:49.988Z,41.30
2018-04-15T16:03:18.655Z,42.00
2018-04-15T16:05:48.781Z,42.50
2018-04-15T16:08:27.979Z,41.70
2018-04-15T16:10:54.211Z,41.10
2018-04-15T16:13:20.498Z,42.50
2018-04-15T16:15:47.841Z,42.70
2018-04-15T16:18:14.020Z,42.50
2018-04-15T16:20:43.192Z,42.50
2018-04-15T16:23:09.391Z,43.20
2018-04-15T16:25:35.611Z,42.70
2018-04-15T16:28:06.110Z,43.40
2018-04-15T16:30:32.356Z,43.60
2018-04-15T16:32:58.636Z,44.40
2018-04-15T16:35:24.831Z,45.60
2018-04-15T16:37:51.704Z,45.30
2018-04-15T16:40:18.102Z,44.70
2018-04-15T16:42:44.806Z,44.80
2018-04-15T16:45:13.855Z,44.80
2018-04-15T16:47:40.137Z,45.90
2018-04-15T16:50:07.009Z,45.90
2018-04-15T16:52:33.214Z,46.00
2018-04-15T16:54:59.922Z,47.40
2018-04-15T16:57:26.159Z,47.00
2018-04-15T16:59:52.676Z,47.90
2018-04-15T17:02:26.938Z,48.20
2018-04-15T17:05:00.070Z,48.60
2018-04-15T17:07:29.182Z,48.70
2018-04-15T17:09:56.135Z,49.40
2018-04-15T17:12:22.380Z,49.50
2018-04-15T17:14:49.362Z,49.30
2018-04-15T17:17:17.664Z,48.50
2018-04-15T17:19:48.476Z,48.40
2018-04-15T17:22:15.951Z,49.00
2018-04-15T17:24:46.959Z,48.90
2018-04-15T17:27:14.993Z,49.50
2018-04-15T17:29:41.228Z,50.10
2018-04-15T17:32:07.522Z,50.30
2018-04-15T17:34:38.983Z,50.60
2018-04-15T17:37:05.163Z,50.70
2018-04-15T17:39:31.359Z,50.70
2018-04-15T17:42:06.289Z,50.00
2018-04-15T17:44:32.512Z,50.40
2018-04-15T17:46:58.748Z,49.90
2018-04-15T17:49:25.580Z,48.90
2018-04-15T17:51:52.042Z,49.30
2018-04-15T17:54:19.165Z,49.90
2018-04-15T17:56:45.358Z,49.90
2018-04-15T17:59:11.545Z,49.60
2018-04-15T18:01:37.905Z,48.40
2018-04-15T18:04:05.358Z,49.80
2018-04-15T18:06:31.801Z,49.50
2018-04-15T18:08:58.387Z,47.50
2018-04-15T18:11:24.899Z,48.30
2018-04-15T18:13:52.587Z,47.90
2018-04-15T18:16:29.408Z,48.90
2018-04-15T18:18:55.698Z,50.00
2018-04-15T18:21:22.273Z,49.40
2018-04-15T18:23:48.540Z,49.40
2018-04-15T18:26:17.711Z,49.80
2018-04-15T18:28:43.931Z,49.50
2018-04-15T18:31:14.752Z,49.20
2018-04-15T18:33:41.716Z,49.80
2018-04-15T18:36:08.603Z,51.00
2018-04-15T18:38:42.614Z,51.90
2018-04-15T18:41:10.360Z,52.50
2018-04-15T18:43:36.615Z,52.90
2018-04-15T18:46:03.179Z,53.30
2018-04-15T18:48:29.445Z,54.10
2018-04-15T18:50:55.734Z,54.50
2018-04-15T18:53:23.226Z,54.30
2018-04-15T18:55:49.440Z,54.20
2018-04-15T18:58:18.667Z,54.50
2018-04-15T19:00:46.124Z,54.10
2018-04-15T19:03:12.376Z,55.00
2018-04-15T19:05:38.672Z,54.90
2018-04-15T19:08:04.964Z,55.20
2018-04-15T19:10:31.201Z,55.30
2018-04-15T19:13:10.385Z,54.60
2018-04-15T19:15:37.633Z,54.90
2018-04-15T19:18:04.200Z,55.80
2018-04-15T19:20:31.610Z,55.50
2018-04-15T19:22:58.181Z,55.50
2018-04-15T19:25:24.527Z,56.80
2018-04-15T19:27:51.092Z,57.00
2018-04-15T19:30:18.847Z,56.70
2018-04-15T19:32:47.683Z,57.70
2018-04-15T19:35:14.979Z,56.00
2018-04-15T19:37:43.109Z,56.00
2018-04-15T19:40:10.745Z,55.00
2018-04-15T19:42:37.862Z,54.10
2018-04-15T19:45:04.067Z,54.00
2018-04-15T19:47:30.844Z,53.80
2018-04-15T19:49:57.090Z,53.60
2018-04-15T19:52:23.513Z,53.70
2018-04-15T19:54:53.636Z,53.90
2018-04-15T19:57:20.344Z,54.30
2018-04-15T19:59:46.590Z,54.80
2018-04-15T20:02:12.944Z,55.10
2018-04-15T20:04:40.054Z,56.10
2018-04-15T20:07:06.566Z,56.10
2018-04-15T20:09:32.793Z,57.70
2018-04-15T20:12:01.226Z,57.20
2018-04-15T20:14:27.649Z,57.70
2018-04-15T20:16:54.414Z,58.00
2018-04-15T20:19:26.464Z,58.40
2018-04-15T20:21:52.808Z,58.60
2018-04-15T20:24:19.320Z,59.50
2018-04-15T20:26:45.896Z,60.10
2018-04-15T20:29:12.285Z,60.80
2018-04-15T20:31:43.387Z,60.60
2018-04-15T20:34:16.579Z,61.50
2018-04-15T20:39:19.304Z,62.50
2018-04-15T20:41:45.617Z,63.20
2018-04-15T20:44:14.087Z,63.50
2018-04-15T20:46:43.949Z,64.40
2018-04-15T20:49:15.115Z,64.80
2018-04-15T20:51:41.379Z,66.70
2018-04-15T20:54:07.667Z,68.40
2018-04-15T20:56:34.617Z,68.80
2018-04-15T20:59:00.913Z,69.40
2018-04-15T21:01:27.393Z,69.10
2018-04-15T21:03:54.649Z,69.30
2018-04-15T21:06:21.863Z,69.90
2018-04-15T21:08:48.682Z,69.40
2018-04-15T21:11:14.932Z,69.90
2018-04-15T21:13:41.094Z,69.70
2018-04-15T21:16:07.580Z,69.30
2018-04-15T21:18:33.687Z,69.60
2018-04-15T21:20:59.851Z,68.70
2018-04-15T21:23:25.980Z,70.30
2018-04-15T21:25:52.112Z,69.00
2018-04-15T21:28:18.224Z,69.70
2018-04-15T21:30:45.110Z,71.40
2018-04-15T21:33:11.250Z,71.40
2018-04-15T21:35:37.405Z,71.30
2018-04-15T21:38:03.519Z,70.40
2018-04-15T21:40:29.702Z,71.10
2018-04-15T21:42:55.815Z,70.30
2018-04-15T21:45:22.883Z,70.10
2018-04-15T21:47:49.268Z,70.60
2018-04-15T21:50:16.151Z,71.90
2018-04-15T21:52:42.974Z,71.80
2018-04-15T21:55:09.194Z,72.10
2018-04-15T21:57:35.400Z,71.90
2018-04-15T22:00:02.272Z,71.90
2018-04-15T22:02:28.471Z,71.80
2018-04-15T22:04:55.353Z,71.40
2018-04-15T22:07:22.240Z,71.40
2018-04-15T22:09:48.369Z,71.40
2018-04-15T22:12:14.635Z,71.60
2018-04-15T22:14:40.840Z,71.20
2018-04-15T22:17:06.988Z,71.60
2018-04-15T22:19:33.105Z,71.40
2018-04-15T22:21:59.304Z,71.80
2018-04-15T22:24:26.192Z,72.30
2018-04-15T22:26:52.387Z,72.20
2018-04-15T22:29:19.359Z,72.80
2018-04-15T22:31:45.739Z,72.60
2018-04-15T22:34:11.903Z,73.00
2018-04-15T22:36:38.055Z,72.50
2018-04-15T22:39:04.195Z,72.70
2018-04-15T22:41:30.343Z,73.40
2018-04-15T22:43:57.439Z,73.00
2018-04-15T22:46:23.576Z,73.30
2018-04-15T22:48:55.778Z,73.20
2018-04-15T22:51:21.923Z,73.20
2018-04-15T22:53:48.848Z,73.20
2018-04-15T22:56:15.050Z,73.20
2018-04-15T22:58:46.226Z,73.00
2018-04-15T23:01:12.364Z,72.70
2018-04-15T23:03:38.536Z,72.90
2018-04-15T23:06:04.703Z,72.70
2018-04-15T23:08:30.819Z,73.10
2018-04-15T23:10:56.968Z,74.10
2018-04-15T23:13:23.970Z,73.90
2018-04-15T23:15:50.096Z,73.80
2018-04-15T23:18:16.231Z,73.90
2018-04-15T23:20:42.403Z,73.80
2018-04-15T23:23:08.538Z,74.90
2018-04-15T23:25:34.676Z,74.40
2018-04-15T23:28:00.843Z,73.80
2018-04-15T23:30:27.059Z,74.00
2018-04-15T23:32:53.163Z,73.80
2018-04-15T23:35:19.335Z,73.80
2018-04-15T23:37:45.448Z,73.50
2018-04-15T23:40:11.582Z,73.50
2018-04-15T23:42:37.693Z,73.90
2018-04-15T23:45:03.874Z,73.80
2018-04-15T23:47:29.967Z,73.40
2018-04-15T23:49:56.840Z,73.80
2018-04-15T23:52:23.731Z,73.50
2018-04-15T23:54:49.847Z,73.50
2018-04-15T23:57:15.988Z,73.50
2018-04-15T23:59:42.122Z,73.40
